Time;durP1;ratioP1;P1;durP2;ratioP2;P2;SDS_P1;SDS_P2;PMS_P1;PMS_P2;Temp;Humidity;BMP_temperature;BMP_pressure;BME280_temperature;BME280_humidity;BME280_pressure;Samples;Min_cycle;Max_cycle;Signal;HPM_P1;HPM_P2
2022/01/27 00:04:51;;;;;;;19.05;8.85;;;2.10;71.60;;;;;;5053507;28;20166;-72
2022/01/27 00:07:17;;;;;;;24.05;10.82;;;2.10;71.60;;;;;;5065206;28;20032;-73
2022/01/27 00:12:09;;;;;;;27.73;12.35;;;2.00;71.90;;;;;;5053752;28;20029;-72
2022/01/27 00:14:44;;;;;;;28.55;12.95;;;2.00;71.60;;;;;;5054896;28;20098;-72
2022/01/27 00:17:13;;;;;;;25.55;11.43;;;2.00;71.80;;;;;;5033352;28;20417;-72
2022/01/27 00:19:40;;;;;;;26.65;11.77;;;1.90;71.90;;;;;;5048677;28;20025;-73
2022/01/27 00:22:05;;;;;;;29.27;12.55;;;1.90;72.00;;;;;;5052001;28;20025;-72
2022/01/27 00:24:31;;;;;;;24.45;11.55;;;2.20;72.30;;;;;;5064896;28;20039;-73
2022/01/27 00:26:58;;;;;;;25.10;11.70;;;2.00;72.10;;;;;;5053212;28;20106;-73
2022/01/27 00:29:25;;;;;;;29.00;13.45;;;1.90;72.10;;;;;;5052489;28;20021;-72
2022/01/27 00:31:51;;;;;;;29.35;13.05;;;2.00;72.00;;;;;;5061248;28;20567;-72
2022/01/27 00:34:17;;;;;;;27.85;12.25;;;1.90;71.90;;;;;;5063916;28;20077;-73
2022/01/27 00:36:42;;;;;;;26.85;12.13;;;1.90;72.00;;;;;;5058716;28;20017;-72
2022/01/27 00:39:08;;;;;;;26.08;12.05;;;1.90;72.20;;;;;;5057785;28;20032;-72
2022/01/27 00:41:34;;;;;;;27.95;12.68;;;1.90;72.30;;;;;;5051619;28;20465;-72
2022/01/27 00:44:01;;;;;;;28.27;13.18;;;2.00;72.20;;;;;;5052548;28;20047;-72
2022/01/27 00:46:27;;;;;;;33.55;14.43;;;2.00;72.10;;;;;;5052503;28;20028;-72
2022/01/27 00:48:52;;;;;;;26.88;12.77;;;2.00;72.20;;;;;;5051051;28;20041;-73
2022/01/27 00:51:22;;;;;;;28.98;13.10;;;2.10;72.40;;;;;;5054457;28;20109;-72
2022/01/27 00:53:58;;;;;;;29.00;12.88;;;2.30;72.40;;;;;;5058673;28;20044;-72
2022/01/27 00:56:30;;;;;;;29.33;13.15;;;2.10;72.30;;;;;;5061854;28;20028;-72
2022/01/27 01:01:30;;;;;;;29.45;13.93;;;2.20;72.30;;;;;;5061327;28;20017;-73
2022/01/27 01:04:00;;;;;;;26.77;12.50;;;2.30;72.20;;;;;;5047009;28;20030;-72
2022/01/27 01:06:47;;;;;;;31.85;14.63;;;2.30;72.00;;;;;;5042958;28;20056;-73
2022/01/27 01:14:41;;;;;;;30.67;13.30;;;2.30;71.40;;;;;;5052491;28;20083;-72
2022/01/27 01:29:25;;;;;;;33.72;13.45;;;2.20;71.20;;;;;;5053364;28;20029;-73
2022/01/27 01:32:57;;;;;;;31.27;14.43;;;2.10;71.60;;;;;;5070627;28;20048;-72
2022/01/27 01:35:46;;;;;;;42.38;14.98;;;2.20;71.90;;;;;;5044686;28;20373;-73
2022/01/27 01:38:13;;;;;;;34.70;13.95;;;2.10;71.80;;;;;;5055783;28;20037;-72
2022/01/27 01:40:39;;;;;;;28.35;12.20;;;2.10;71.90;;;;;;5059314;28;20027;-72
2022/01/27 01:43:05;;;;;;;27.08;13.80;;;2.10;71.80;;;;;;5067432;28;20028;-72
2022/01/27 01:45:35;;;;;;;33.20;13.70;;;2.10;71.70;;;;;;5057032;28;20024;-73
2022/01/27 01:48:00;;;;;;;30.73;13.50;;;2.10;71.60;;;;;;5071571;28;20036;-73
2022/01/27 01:50:26;;;;;;;36.03;15.90;;;2.20;71.70;;;;;;5056071;28;20485;-73
2022/01/27 01:52:52;;;;;;;31.77;13.80;;;2.10;71.80;;;;;;5059298;28;20384;-72
2022/01/27 01:55:18;;;;;;;31.58;13.63;;;2.10;71.90;;;;;;5055504;28;20021;-72
2022/01/27 01:57:44;;;;;;;34.47;15.38;;;2.10;72.00;;;;;;5058028;28;20035;-72
2022/01/27 02:00:12;;;;;;;37.13;15.32;;;2.10;71.90;;;;;;5054232;28;20113;-72
2022/01/27 02:02:39;;;;;;;35.33;14.50;;;2.10;71.70;;;;;;5058895;28;20023;-72
2022/01/27 02:05:06;;;;;;;35.05;14.52;;;2.10;71.80;;;;;;5061594;28;20024;-73
2022/01/27 02:10:18;;;;;;;32.08;13.70;;;2.10;71.80;;;;;;5054766;28;20024;-72
2022/01/27 02:18:13;;;;;;;35.25;12.80;;;2.20;71.90;;;;;;5041632;28;19916;-73
2022/01/27 02:20:40;;;;;;;36.30;15.23;;;2.30;71.80;;;;;;5063769;28;20032;-73
2022/01/27 02:23:08;;;;;;;39.75;16.00;;;2.20;71.90;;;;;;5042536;28;20024;-73
2022/01/27 02:25:34;;;;;;;32.28;14.32;;;2.20;71.80;;;;;;5053992;28;20504;-73
2022/01/27 02:28:01;;;;;;;33.38;14.93;;;2.20;71.70;;;;;;5064801;28;20119;-73
2022/01/27 02:30:27;;;;;;;36.13;15.93;;;2.20;71.70;;;;;;5053199;28;20048;-73
2022/01/27 02:32:54;;;;;;;33.28;14.38;;;2.20;71.60;;;;;;5054548;28;20055;-73
2022/01/27 02:35:24;;;;;;;35.85;15.80;;;2.20;71.60;;;;;;5067586;28;20103;-73
2022/01/27 02:37:50;;;;;;;32.58;15.35;;;2.20;71.80;;;;;;5072688;28;20036;-73
2022/01/27 02:40:39;;;;;;;34.10;15.48;;;2.20;72.50;;;;;;5074363;28;20376;-72
2022/01/27 02:43:05;;;;;;;32.75;14.57;;;2.20;71.80;;;;;;5044989;28;20088;-72
2022/01/27 02:45:58;;;;;;;35.63;16.17;;;2.20;71.70;;;;;;5063944;28;20016;-73
2022/01/27 02:48:24;;;;;;;35.30;14.85;;;2.20;71.90;;;;;;5045837;28;20032;-73
2022/01/27 02:50:50;;;;;;;32.92;14.98;;;2.20;71.80;;;;;;5048555;28;20029;-73
2022/01/27 02:53:16;;;;;;;33.05;15.05;;;2.20;71.80;;;;;;5039967;28;20036;-73
2022/01/27 02:55:42;;;;;;;40.53;16.95;;;2.20;71.90;;;;;;5052279;28;20108;-73
2022/01/27 02:58:10;;;;;;;38.65;17.33;;;2.20;71.90;;;;;;5038030;28;20090;-73
2022/01/27 03:00:35;;;;;;;44.22;19.42;;;2.20;71.70;;;;;;5037357;28;20029;-73
2022/01/27 03:03:01;;;;;;;38.15;16.77;;;2.30;71.60;;;;;;5033678;28;20032;-73
2022/01/27 03:05:27;;;;;;;41.08;17.23;;;2.20;71.60;;;;;;5043512;28;20026;-73
2022/01/27 03:07:52;;;;;;;41.05;17.33;;;2.20;71.60;;;;;;5034843;28;20041;-73
2022/01/27 03:10:19;;;;;;;38.33;16.15;;;2.40;71.70;;;;;;5059371;28;20041;-73
2022/01/27 03:12:48;;;;;;;39.28;16.35;;;2.30;71.60;;;;;;5055222;28;20020;-73
2022/01/27 03:15:15;;;;;;;37.25;15.90;;;2.20;71.70;;;;;;5054122;28;20521;-73
2022/01/27 03:17:40;;;;;;;35.72;16.65;;;2.20;71.70;;;;;;5066439;28;20033;-73
2022/01/27 03:20:08;;;;;;;45.15;19.20;;;2.20;71.70;;;;;;5053359;28;20040;-73
2022/01/27 03:22:34;;;;;;;39.67;17.02;;;2.20;71.60;;;;;;5051410;28;20033;-73
2022/01/27 03:25:00;;;;;;;38.10;16.92;;;2.40;71.70;;;;;;5044900;28;20539;-73
2022/01/27 03:27:27;;;;;;;42.58;18.77;;;2.20;71.60;;;;;;5053650;28;20041;-73
2022/01/27 03:29:52;;;;;;;37.63;17.48;;;2.20;71.50;;;;;;5044911;28;20040;-73
2022/01/27 03:32:20;;;;;;;42.90;17.38;;;2.20;71.60;;;;;;5043457;28;20033;-73
2022/01/27 03:34:46;;;;;;;40.75;17.42;;;2.40;71.90;;;;;;5056084;28;20029;-73
2022/01/27 03:37:12;;;;;;;44.58;17.50;;;2.40;72.00;;;;;;5054822;28;20029;-73
2022/01/27 03:39:40;;;;;;;44.13;18.50;;;2.30;72.00;;;;;;5052243;28;20040;-73
2022/01/27 03:42:06;;;;;;;44.55;18.23;;;2.20;72.00;;;;;;5033836;28;20546;-73
2022/01/27 03:44:32;;;;;;;36.45;17.55;;;2.20;71.90;;;;;;5033716;28;20022;-73
2022/01/27 03:46:58;;;;;;;43.88;18.02;;;2.40;72.00;;;;;;5032443;28;20029;-73
2022/01/27 03:49:25;;;;;;;40.05;16.67;;;2.30;71.90;;;;;;5032756;28;20021;-73
2022/01/27 03:51:50;;;;;;;42.60;17.80;;;2.40;72.00;;;;;;5033701;28;20028;-73
2022/01/27 03:54:16;;;;;;;43.42;18.60;;;2.30;72.00;;;;;;5032263;28;20398;-72
2022/01/27 03:56:42;;;;;;;43.92;18.15;;;2.30;71.80;;;;;;5032027;28;20381;-72
2022/01/27 03:59:08;;;;;;;42.47;18.95;;;2.40;71.70;;;;;;5032410;28;20568;-72
2022/01/27 04:01:35;;;;;;;41.15;17.65;;;2.40;71.70;;;;;;5032342;28;20120;-73
2022/01/27 04:04:01;;;;;;;43.53;18.55;;;2.40;71.60;;;;;;5052051;28;20469;-72
2022/01/27 04:06:37;;;;;;;49.70;19.92;;;2.40;71.60;;;;;;5051861;28;20037;-72
2022/01/27 04:09:04;;;;;;;39.30;17.88;;;2.40;71.70;;;;;;5053535;28;20021;-72
2022/01/27 04:11:30;;;;;;;46.42;19.83;;;2.40;71.60;;;;;;5051955;28;20025;-73
2022/01/27 04:13:56;;;;;;;44.47;19.52;;;2.40;71.50;;;;;;5053195;28;20029;-73
2022/01/27 04:16:21;;;;;;;42.75;17.95;;;2.40;71.30;;;;;;5052067;28;20032;-73
2022/01/27 04:18:47;;;;;;;47.78;20.10;;;2.40;71.20;;;;;;5052993;28;20079;-72
2022/01/27 04:21:14;;;;;;;42.67;18.20;;;2.30;71.20;;;;;;5053234;28;20017;-72
2022/01/27 04:23:40;;;;;;;47.50;21.30;;;2.30;71.30;;;;;;5051771;28;20119;-72
2022/01/27 04:26:06;;;;;;;43.67;18.70;;;2.30;72.00;;;;;;5045569;28;20096;-73
2022/01/27 04:28:35;;;;;;;47.25;20.40;;;2.30;71.40;;;;;;5049080;28;20094;-73
2022/01/27 04:31:04;;;;;;;47.95;21.25;;;2.30;71.50;;;;;;5052926;28;20059;-73
2022/01/27 04:33:32;;;;;;;47.35;21.10;;;2.30;71.50;;;;;;5051632;28;20035;-73
2022/01/27 04:36:01;;;;;;;44.65;19.23;;;2.30;71.60;;;;;;5051622;28;20484;-72
2022/01/27 04:38:37;;;;;;;48.25;21.88;;;2.30;71.60;;;;;;5052957;28;20039;-72
2022/01/27 04:41:13;;;;;;;40.00;19.35;;;2.30;71.60;;;;;;5052893;28;20508;-73
2022/01/27 04:43:47;;;;;;;45.08;20.88;;;2.30;71.40;;;;;;5051623;28;20035;-72
2022/01/27 04:46:34;;;;;;;39.95;19.10;;;2.30;71.20;;;;;;5051380;28;20028;-72
2022/01/27 04:49:02;;;;;;;43.75;20.55;;;2.30;71.10;;;;;;5051417;28;20052;-72
2022/01/27 04:51:29;;;;;;;43.10;19.67;;;2.20;71.10;;;;;;5052804;28;20021;-73
2022/01/27 04:54:17;;;;;;;38.78;18.98;;;2.20;71.20;;;;;;5052668;28;20415;-72
2022/01/27 04:56:43;;;;;;;42.67;19.27;;;2.20;71.30;;;;;;5052632;28;20462;-73
2022/01/27 04:59:23;;;;;;;39.03;18.75;;;2.10;72.00;;;;;;5052708;28;20029;-73
2022/01/27 05:01:58;;;;;;;35.15;17.15;;;2.10;71.40;;;;;;5052644;28;20093;-73
2022/01/27 05:04:30;;;;;;;38.85;18.90;;;2.10;71.30;;;;;;5042523;28;20029;-73
2022/01/27 05:06:55;;;;;;;39.22;18.55;;;2.20;71.50;;;;;;5032583;28;20037;-73
2022/01/27 05:09:23;;;;;;;44.42;20.33;;;2.10;71.40;;;;;;5032696;28;20070;-72
2022/01/27 05:11:54;;;;;;;41.35;19.33;;;2.20;72.30;;;;;;5036800;28;20033;-72
2022/01/27 05:14:24;;;;;;;44.17;20.95;;;2.20;71.50;;;;;;5036641;28;20224;-73
2022/01/27 05:16:53;;;;;;;46.80;20.45;;;2.20;71.50;;;;;;5036660;28;20021;-73
2022/01/27 05:19:19;;;;;;;46.78;20.52;;;2.20;71.40;;;;;;5036579;28;20029;-73
2022/01/27 05:21:46;;;;;;;41.65;19.83;;;2.30;71.40;;;;;;5035343;28;20060;-73
2022/01/27 05:24:13;;;;;;;39.33;19.02;;;2.20;71.30;;;;;;5036362;28;20022;-73
2022/01/27 05:26:39;;;;;;;43.03;20.27;;;2.20;71.10;;;;;;5035264;28;20072;-73
2022/01/27 05:29:09;;;;;;;40.97;19.70;;;2.20;71.00;;;;;;5054819;28;20178;-73
2022/01/27 05:31:35;;;;;;;39.67;18.48;;;2.30;71.00;;;;;;5056188;28;20171;-73
2022/01/27 05:34:01;;;;;;;38.90;19.20;;;2.20;71.00;;;;;;5056193;28;20048;-73
2022/01/27 05:36:27;;;;;;;39.55;19.63;;;2.20;70.90;;;;;;5054802;28;20049;-73
2022/01/27 05:38:52;;;;;;;42.42;20.58;;;2.20;70.90;;;;;;5056263;28;20025;-73
2022/01/27 05:41:18;;;;;;;49.13;20.95;;;2.10;70.80;;;;;;5056076;28;20025;-73
2022/01/27 05:43:44;;;;;;;43.63;20.58;;;2.20;70.80;;;;;;5054738;28;20029;-73
2022/01/27 05:46:10;;;;;;;42.65;21.10;;;2.30;70.80;;;;;;5056037;28;20025;-73
2022/01/27 05:48:36;;;;;;;40.15;20.27;;;2.30;70.70;;;;;;5054542;28;20029;-73
2022/01/27 05:51:02;;;;;;;38.70;19.77;;;2.10;70.50;;;;;;5055857;28;20028;-73
2022/01/27 05:53:30;;;;;;;39.75;19.95;;;2.10;70.60;;;;;;5054642;28;20032;-73
2022/01/27 05:55:56;;;;;;;36.30;18.60;;;2.00;70.60;;;;;;5055810;28;20036;-73
2022/01/27 05:58:22;;;;;;;35.42;18.73;;;2.00;70.70;;;;;;5054529;28;20120;-73
2022/01/27 06:00:48;;;;;;;40.75;20.33;;;2.30;70.80;;;;;;5054466;28;20117;-73
2022/01/27 06:03:14;;;;;;;42.55;19.80;;;2.00;70.70;;;;;;5053810;28;20035;-73
2022/01/27 06:05:39;;;;;;;44.25;19.90;;;2.00;70.70;;;;;;5035732;28;20037;-73
2022/01/27 06:08:05;;;;;;;39.42;20.40;;;1.90;70.60;;;;;;5035540;28;20029;-73
2022/01/27 06:10:31;;;;;;;43.75;19.95;;;1.90;70.60;;;;;;5034365;28;20071;-73
2022/01/27 06:12:57;;;;;;;44.78;21.55;;;1.90;70.50;;;;;;5034282;28;20116;-73
2022/01/27 06:15:26;;;;;;;39.50;18.95;;;1.90;70.40;;;;;;5035568;28;20156;-73
2022/01/27 06:17:53;;;;;;;43.22;20.55;;;1.80;70.50;;;;;;5035439;28;20358;-73
2022/01/27 06:20:20;;;;;;;43.08;19.63;;;1.80;70.50;;;;;;5033103;28;20018;-74
2022/01/27 06:22:46;;;;;;;42.70;19.98;;;1.80;70.70;;;;;;5033960;28;20025;-73
2022/01/27 06:25:14;;;;;;;41.42;19.50;;;1.70;70.60;;;;;;5034041;28;20028;-73
2022/01/27 06:27:40;;;;;;;38.72;20.08;;;1.70;70.60;;;;;;5040831;28;20033;-74
2022/01/27 06:30:08;;;;;;;38.70;18.52;;;1.70;70.60;;;;;;5042899;28;20044;-74
2022/01/27 06:32:35;;;;;;;56.50;20.92;;;1.70;70.60;;;;;;5053244;28;20060;-74
2022/01/27 06:35:03;;;;;;;47.60;22.23;;;1.70;70.60;;;;;;5053835;28;20429;-74
2022/01/27 06:37:30;;;;;;;55.22;24.95;;;1.70;70.60;;;;;;5053662;28;20035;-74
2022/01/27 06:39:56;;;;;;;41.78;20.88;;;1.70;70.60;;;;;;5053855;28;20045;-74
2022/01/27 06:42:22;;;;;;;42.38;20.95;;;1.70;70.50;;;;;;5053633;28;20064;-74
2022/01/27 06:44:47;;;;;;;42.35;19.95;;;1.60;70.50;;;;;;5053548;28;20021;-74
2022/01/27 06:47:14;;;;;;;46.67;21.08;;;1.60;70.50;;;;;;5054848;28;20040;-74
2022/01/27 06:49:40;;;;;;;41.10;20.67;;;1.60;70.50;;;;;;5053410;28;20029;-74
2022/01/27 06:52:06;;;;;;;41.88;19.45;;;1.60;70.50;;;;;;5053711;28;20112;-74
2022/01/27 06:54:32;;;;;;;40.58;20.85;;;1.50;70.50;;;;;;5054797;28;20021;-74
2022/01/27 06:56:58;;;;;;;44.88;21.17;;;1.50;70.50;;;;;;5053410;28;20021;-74
2022/01/27 06:59:24;;;;;;;44.50;19.55;;;1.60;70.60;;;;;;5054740;28;20017;-74
2022/01/27 07:01:49;;;;;;;43.03;19.83;;;1.50;70.60;;;;;;5054424;28;20377;-74
2022/01/27 07:04:15;;;;;;;40.13;18.95;;;1.50;70.60;;;;;;5045895;28;20108;-74
2022/01/27 07:06:41;;;;;;;39.65;19.42;;;1.50;70.50;;;;;;5033337;28;20036;-74
2022/01/27 07:09:06;;;;;;;40.70;19.58;;;1.40;70.50;;;;;;5033130;28;20128;-74
2022/01/27 07:11:32;;;;;;;42.17;20.00;;;1.40;70.50;;;;;;5033502;28;20036;-74
2022/01/27 07:13:58;;;;;;;41.08;19.48;;;1.60;70.60;;;;;;5034364;28;20101;-74
2022/01/27 07:16:24;;;;;;;40.67;19.83;;;1.60;70.70;;;;;;5034390;28;20100;-74
2022/01/27 07:18:52;;;;;;;45.63;20.45;;;1.40;70.60;;;;;;5034297;28;20079;-74
2022/01/27 07:21:20;;;;;;;43.40;20.90;;;1.40;70.60;;;;;;5035550;28;20025;-74
2022/01/27 07:23:47;;;;;;;45.72;21.88;;;1.40;70.60;;;;;;5035701;28;20052;-74
2022/01/27 07:26:14;;;;;;;42.40;19.65;;;1.40;70.70;;;;;;5034106;28;20454;-74
2022/01/27 07:28:41;;;;;;;45.47;21.30;;;1.40;70.60;;;;;;5049086;28;20108;-74
2022/01/27 07:31:06;;;;;;;44.80;20.92;;;1.50;70.70;;;;;;5053922;28;20045;-74
2022/01/27 07:33:32;;;;;;;34.85;18.25;;;1.50;70.70;;;;;;5053629;28;20029;-74
2022/01/27 07:35:57;;;;;;;42.30;20.25;;;1.50;70.60;;;;;;5053770;28;20100;-74
2022/01/27 07:38:25;;;;;;;40.80;19.90;;;1.50;70.70;;;;;;5053877;28;20021;-73
2022/01/27 07:40:50;;;;;;;40.50;18.88;;;1.60;70.70;;;;;;5053914;28;20484;-74
2022/01/27 07:43:16;;;;;;;43.35;19.58;;;1.50;70.70;;;;;;5053834;28;20104;-74
2022/01/27 07:45:42;;;;;;;41.08;18.67;;;1.60;70.90;;;;;;5049140;28;20036;-74
2022/01/27 07:48:08;;;;;;;42.30;20.95;;;1.70;71.00;;;;;;5049001;28;20461;-74
2022/01/27 07:50:34;;;;;;;48.22;22.15;;;1.80;70.90;;;;;;5066463;28;20024;-74
2022/01/27 07:53:00;;;;;;;45.55;22.55;;;1.70;70.90;;;;;;5056732;28;20025;-74
2022/01/27 07:55:25;;;;;;;46.78;22.33;;;1.70;70.80;;;;;;5052762;28;20028;-74
2022/01/27 07:57:51;;;;;;;47.38;25.25;;;1.80;70.90;;;;;;5052882;28;20087;-74
2022/01/27 08:00:17;;;;;;;52.28;24.70;;;1.80;70.90;;;;;;5051316;28;20021;-74
2022/01/27 08:02:45;;;;;;;40.78;21.23;;;1.90;70.90;;;;;;5052648;28;20036;-74
2022/01/27 08:05:11;;;;;;;40.20;20.52;;;1.90;70.90;;;;;;5050760;28;20473;-74
2022/01/27 08:07:37;;;;;;;42.75;21.05;;;2.00;70.90;;;;;;5051315;28;20079;-74
2022/01/27 08:10:02;;;;;;;42.15;20.90;;;2.20;70.90;;;;;;5051316;28;20021;-74
2022/01/27 08:12:28;;;;;;;37.33;18.30;;;2.00;70.60;;;;;;5052951;28;20527;-74
2022/01/27 08:14:54;;;;;;;36.97;17.38;;;2.10;70.60;;;;;;5052456;28;20051;-74
2022/01/27 08:17:19;;;;;;;35.13;16.70;;;2.10;70.50;;;;;;5052294;28;20029;-74
2022/01/27 08:19:45;;;;;;;34.67;17.10;;;2.10;70.40;;;;;;5051222;28;20028;-74
2022/01/27 08:22:11;;;;;;;36.15;18.17;;;2.20;70.50;;;;;;5051025;28;20033;-74
2022/01/27 08:24:41;;;;;;;31.38;15.68;;;2.20;70.40;;;;;;5052280;28;20086;-74
2022/01/27 08:27:09;;;;;;;34.20;17.38;;;2.20;70.20;;;;;;5052127;28;20041;-74
2022/01/27 08:29:42;;;;;;;33.17;17.13;;;2.20;70.00;;;;;;5051824;28;20033;-74
2022/01/27 08:32:15;;;;;;;35.45;17.38;;;2.40;70.00;;;;;;5052384;28;20377;-74
2022/01/27 08:34:42;;;;;;;34.75;17.92;;;2.30;70.00;;;;;;5049104;28;20477;-74
2022/01/27 08:37:10;;;;;;;37.10;18.13;;;2.30;69.80;;;;;;5052027;28;20029;-74
2022/01/27 08:39:36;;;;;;;35.15;17.83;;;2.30;69.60;;;;;;5050459;28;20043;-74
2022/01/27 08:42:04;;;;;;;37.00;18.00;;;2.20;69.80;;;;;;5051644;28;20033;-74
2022/01/27 08:44:32;;;;;;;35.83;17.95;;;2.30;70.00;;;;;;5049880;28;20036;-74
2022/01/27 08:46:58;;;;;;;35.35;17.13;;;2.30;70.20;;;;;;5052274;28;20496;-74
2022/01/27 08:49:26;;;;;;;32.22;16.20;;;2.30;70.40;;;;;;5052664;28;20029;-74
2022/01/27 08:51:52;;;;;;;36.80;18.40;;;2.40;70.60;;;;;;5051293;28;20033;-74
2022/01/27 08:54:18;;;;;;;38.88;19.00;;;2.50;70.70;;;;;;5052673;28;20025;-74
2022/01/27 08:56:44;;;;;;;34.30;18.50;;;2.60;70.50;;;;;;5052606;28;20075;-74
2022/01/27 08:59:10;;;;;;;33.65;17.10;;;2.70;70.40;;;;;;5052579;28;20473;-74
2022/01/27 09:01:36;;;;;;;36.97;18.42;;;3.00;70.50;;;;;;5052749;28;20024;-74
2022/01/27 09:04:04;;;;;;;38.17;17.58;;;3.10;70.50;;;;;;5045300;28;20034;-74
2022/01/27 09:06:29;;;;;;;33.03;17.17;;;3.00;70.10;;;;;;5032541;28;20080;-74
2022/01/27 09:08:56;;;;;;;32.75;16.83;;;3.10;69.80;;;;;;5031397;28;20037;-74
2022/01/27 09:11:22;;;;;;;32.22;17.05;;;3.10;69.80;;;;;;5032376;28;20034;-74
2022/01/27 09:13:48;;;;;;;32.67;18.15;;;3.20;69.50;;;;;;5032516;28;20083;-74
2022/01/27 09:16:18;;;;;;;33.78;18.30;;;3.30;69.10;;;;;;5031295;28;20025;-74
2022/01/27 09:18:43;;;;;;;33.22;17.17;;;3.30;69.30;;;;;;5031181;28;20065;-74
2022/01/27 09:21:17;;;;;;;32.80;16.83;;;3.60;69.40;;;;;;5032523;28;20052;-74
2022/01/27 09:23:43;;;;;;;31.90;16.85;;;3.30;69.10;;;;;;5032626;28;20108;-74
2022/01/27 09:26:26;;;;;;;31.65;16.15;;;3.40;69.00;;;;;;5032462;28;20066;-74
2022/01/27 09:28:51;;;;;;;36.58;18.13;;;3.40;69.00;;;;;;5047798;28;20041;-74
2022/01/27 09:31:17;;;;;;;34.08;15.23;;;3.40;68.50;;;;;;5052220;28;20095;-73
2022/01/27 09:33:43;;;;;;;32.25;16.63;;;3.40;68.60;;;;;;5052528;28;20377;-73
2022/01/27 09:36:12;;;;;;;33.20;16.50;;;3.40;68.40;;;;;;5052234;28;20028;-73
2022/01/27 09:38:38;;;;;;;35.40;17.00;;;3.40;68.40;;;;;;5052260;28;20070;-73
2022/01/27 09:41:07;;;;;;;35.90;17.30;;;3.30;68.20;;;;;;5052212;28;20025;-73
2022/01/27 09:43:34;;;;;;;34.53;17.42;;;3.30;68.40;;;;;;5052210;28;20044;-74
2022/01/27 09:46:07;;;;;;;36.65;19.23;;;3.20;67.70;;;;;;5052095;28;20049;-73
2022/01/27 09:48:40;;;;;;;38.00;18.05;;;3.10;67.70;;;;;;5052000;28;20033;-73
2022/01/27 09:53:50;;;;;;;36.67;16.08;;;2.90;68.50;;;;;;5052223;28;20033;-73
2022/01/27 09:56:15;;;;;;;33.10;16.23;;;2.90;68.40;;;;;;5054975;28;20052;-73
2022/01/27 09:58:41;;;;;;;39.20;19.25;;;2.80;68.80;;;;;;5055850;28;20426;-73
2022/01/27 10:01:07;;;;;;;43.05;20.05;;;2.80;68.70;;;;;;5055637;28;20029;-73
2022/01/27 10:03:32;;;;;;;33.55;16.92;;;2.80;68.40;;;;;;5051358;28;20022;-73
2022/01/27 10:06:14;;;;;;;36.63;18.35;;;2.70;69.40;;;;;;5035717;28;20025;-73
2022/01/27 10:08:42;;;;;;;37.08;18.13;;;2.70;68.80;;;;;;5035541;28;20037;-73
2022/01/27 10:11:16;;;;;;;38.25;17.38;;;2.70;69.20;;;;;;5034405;28;20084;-73
2022/01/27 10:13:44;;;;;;;40.10;17.58;;;2.80;69.60;;;;;;5035630;28;20053;-73
2022/01/27 10:16:35;;;;;;;34.72;18.05;;;3.00;69.70;;;;;;5035538;28;20454;-73
2022/01/27 10:19:06;;;;;;;31.50;15.50;;;2.90;69.70;;;;;;5034336;28;20080;-72
2022/01/27 10:21:33;;;;;;;36.28;16.90;;;2.90;70.70;;;;;;5035383;28;20102;-72
2022/01/27 10:24:21;;;;;;;40.45;19.00;;;3.00;69.90;;;;;;5034303;28;20026;-72
2022/01/27 10:26:54;;;;;;;35.55;16.58;;;3.20;69.80;;;;;;5030547;28;20481;-72
2022/01/27 10:29:37;;;;;;;40.20;18.10;;;3.20;69.60;;;;;;5035190;28;20022;-71
2022/01/27 10:32:08;;;;;;;39.57;17.77;;;3.30;69.30;;;;;;5035277;28;20041;-72
2022/01/27 10:34:55;;;;;;;37.60;17.58;;;3.30;69.10;;;;;;5035368;28;20630;-72
2022/01/27 10:37:20;;;;;;;36.83;17.45;;;3.40;69.10;;;;;;5035180;28;20108;-72
2022/01/27 10:39:47;;;;;;;36.83;18.00;;;3.50;69.30;;;;;;5035259;28;20104;-72
2022/01/27 10:42:13;;;;;;;36.92;17.08;;;3.60;69.20;;;;;;5035133;28;20018;-72
2022/01/27 10:44:48;;;;;;;36.35;17.55;;;3.50;68.90;;;;;;5034954;28;20428;-72
2022/01/27 10:47:21;;;;;;;41.75;19.40;;;3.50;68.70;;;;;;5035519;28;20462;-72
2022/01/27 10:50:00;;;;;;;29.17;13.50;;;3.50;68.10;;;;;;5048482;28;20477;-72
2022/01/27 10:55:07;;;;;;;33.35;15.82;;;3.40;68.00;;;;;;5055175;28;20051;-72
2022/01/27 10:57:32;;;;;;;38.88;16.58;;;3.30;68.00;;;;;;5054828;28;20079;-72
2022/01/27 11:00:09;;;;;;;37.33;14.90;;;3.20;68.00;;;;;;5054915;28;20025;-72
2022/01/27 11:03:03;;;;;;;34.42;16.30;;;3.20;68.30;;;;;;5054748;28;20056;-72
2022/01/27 11:05:40;;;;;;;29.80;13.60;;;3.20;68.30;;;;;;5034720;28;20037;-72
2022/01/27 11:08:06;;;;;;;29.33;14.00;;;3.20;68.70;;;;;;5033811;28;20029;-71
2022/01/27 11:10:32;;;;;;;32.72;15.15;;;3.50;69.00;;;;;;5033257;28;20037;-72
2022/01/27 11:12:58;;;;;;;31.60;14.63;;;3.20;68.70;;;;;;5034684;28;20031;-72
2022/01/27 11:15:25;;;;;;;34.45;16.23;;;3.20;68.70;;;;;;5033164;28;20033;-71
2022/01/27 11:17:52;;;;;;;36.13;15.55;;;3.20;68.60;;;;;;5034738;28;20036;-71
2022/01/27 11:20:35;;;;;;;38.42;16.23;;;3.20;68.90;;;;;;5034514;28;20020;-71
2022/01/27 11:25:52;;;;;;;;;;;3.50;69.20;;;;;;5034550;28;20318;-72
2022/01/27 11:28:20;;;;;;;31.95;13.10;;;3.30;68.90;;;;;;5078288;28;19967;-71
2022/01/27 11:31:12;;;;;;;30.00;15.18;;;3.30;69.00;;;;;;5053884;28;20053;-71
2022/01/27 11:33:41;;;;;;;32.60;13.20;;;3.30;68.80;;;;;;5037115;28;20033;-72
2022/01/27 11:36:14;;;;;;;27.92;12.95;;;3.30;69.10;;;;;;5052793;28;20028;-72
2022/01/27 11:38:45;;;;;;;29.55;13.10;;;3.30;69.30;;;;;;5052557;28;20105;-72
2022/01/27 11:41:37;;;;;;;31.65;13.80;;;3.50;69.60;;;;;;5052603;28;20534;-72
2022/01/27 11:44:23;;;;;;;30.50;14.77;;;3.40;69.70;;;;;;5053809;28;20088;-72
2022/01/27 11:47:14;;;;;;;31.60;14.07;;;3.80;69.80;;;;;;5052432;28;20029;-72
2022/01/27 11:50:05;;;;;;;31.67;13.85;;;3.50;69.60;;;;;;5047316;28;20436;-71
2022/01/27 11:52:48;;;;;;;28.17;13.45;;;3.60;69.80;;;;;;5053557;28;20021;-71
2022/01/27 11:55:26;;;;;;;27.00;13.15;;;3.70;69.80;;;;;;5053630;28;20111;-71
2022/01/27 11:58:19;;;;;;;24.38;13.00;;;4.10;69.80;;;;;;5053504;28;20021;-72
2022/01/27 12:01:06;;;;;;;26.48;12.40;;;3.80;69.70;;;;;;5051822;28;20029;-72
2022/01/27 12:03:33;;;;;;;24.33;12.18;;;3.90;69.80;;;;;;5053199;28;20032;-72
2022/01/27 12:06:25;;;;;;;22.10;11.82;;;3.90;69.80;;;;;;5052173;28;20055;-71
2022/01/27 12:09:10;;;;;;;25.63;12.88;;;4.10;70.00;;;;;;5053413;28;20033;-71
2022/01/27 12:11:50;;;;;;;21.98;11.52;;;4.20;70.00;;;;;;5053015;28;20051;-71
2022/01/27 12:14:21;;;;;;;22.73;10.73;;;4.20;69.40;;;;;;5053304;28;20048;-71
2022/01/27 12:17:09;;;;;;;20.42;10.27;;;4.30;69.40;;;;;;5053443;28;20075;-71
2022/01/27 12:20:11;;;;;;;17.55;10.35;;;4.30;69.20;;;;;;5053139;28;20074;-71
2022/01/27 12:22:41;;;;;;;22.50;11.65;;;4.30;69.20;;;;;;5053263;28;20017;-71
2022/01/27 12:25:08;;;;;;;18.13;9.20;;;4.30;69.10;;;;;;5053291;28;20056;-71
2022/01/27 12:27:34;;;;;;;18.88;10.68;;;4.40;69.30;;;;;;5052582;28;20036;-72
2022/01/27 12:30:00;;;;;;;22.05;10.77;;;4.40;69.30;;;;;;5053043;28;20044;-71
2022/01/27 12:32:28;;;;;;;19.58;9.57;;;4.40;69.30;;;;;;5051490;28;20059;-72
2022/01/27 12:34:57;;;;;;;20.02;10.02;;;4.40;69.20;;;;;;5052882;28;20063;-71
2022/01/27 12:37:34;;;;;;;19.05;10.00;;;4.40;69.20;;;;;;5052899;28;20028;-71
2022/01/27 12:40:20;;;;;;;18.33;9.73;;;4.40;69.20;;;;;;5052910;28;20091;-72
2022/01/27 12:43:01;;;;;;;21.77;9.77;;;4.40;69.30;;;;;;5052505;28;20037;-71
2022/01/27 12:45:33;;;;;;;22.02;10.10;;;4.40;69.50;;;;;;5051650;28;20017;-71
2022/01/27 12:48:04;;;;;;;17.98;9.00;;;4.40;69.70;;;;;;5052681;28;20112;-71
2022/01/27 12:50:30;;;;;;;20.27;9.30;;;4.40;69.70;;;;;;5048085;28;20526;-72
2022/01/27 12:53:00;;;;;;;14.98;9.00;;;4.40;69.80;;;;;;5055562;28;20025;-72
2022/01/27 12:55:34;;;;;;;16.90;8.60;;;4.50;69.80;;;;;;5052589;28;20108;-72
2022/01/27 12:58:05;;;;;;;18.10;8.32;;;4.70;70.10;;;;;;5051324;28;20029;-71
2022/01/27 13:00:42;;;;;;;14.57;7.93;;;4.60;70.10;;;;;;5052956;28;20103;-71
2022/01/27 13:03:09;;;;;;;19.50;8.15;;;4.60;70.10;;;;;;5052642;28;20539;-71
2022/01/27 13:05:47;;;;;;;13.95;7.72;;;4.80;70.20;;;;;;5032717;28;20545;-71
2022/01/27 13:08:15;;;;;;;18.70;8.63;;;4.80;70.20;;;;;;5031242;28;20470;-72
2022/01/27 13:10:50;;;;;;;17.00;7.95;;;4.80;69.90;;;;;;5031406;28;20040;-71
2022/01/27 13:13:21;;;;;;;13.90;6.78;;;4.80;69.80;;;;;;5031664;28;20378;-72
2022/01/27 13:15:58;;;;;;;12.57;7.35;;;4.80;69.80;;;;;;5034586;28;20032;-72
2022/01/27 13:18:30;;;;;;;13.35;6.72;;;4.90;69.90;;;;;;5052765;28;20021;-70
2022/01/27 13:20:58;;;;;;;18.98;8.05;;;4.90;69.90;;;;;;5048736;28;20048;-70
2022/01/27 13:23:32;;;;;;;11.88;6.72;;;4.90;69.80;;;;;;5043314;28;20033;-70
2022/01/27 13:26:03;;;;;;;12.07;6.53;;;5.00;69.90;;;;;;5039643;28;20035;-70
2022/01/27 13:28:31;;;;;;;14.65;7.72;;;5.00;69.90;;;;;;5038227;28;20033;-69
2022/01/27 13:31:06;;;;;;;11.82;6.55;;;5.00;69.80;;;;;;5040682;28;20041;-70
2022/01/27 13:33:43;;;;;;;13.25;6.53;;;5.00;69.90;;;;;;5045360;28;20021;-70